sensor_id;sensor_type;location;lat;lon;timestamp;temperature;humidity
18597;DHT22;9428;50.950;6.912;2022-12-18T00:00:25;-2.00;99.90
18597;DHT22;9428;50.950;6.912;2022-12-18T00:03:12;-1.90;99.90
18597;DHT22;9428;50.950;6.912;2022-12-18T00:06:00;-1.90;99.90
18597;DHT22;9428;50.950;6.912;2022-12-18T00:08:49;-2.00;99.90
18597;DHT22;9428;50.950;6.912;2022-12-18T00:11:36;-2.00;99.90
18597;DHT22;9428;50.950;6.912;2022-12-18T00:14:24;-2.00;99.90
18597;DHT22;9428;50.950;6.912;2022-12-18T00:17:11;-2.00;99.90
18597;DHT22;9428;50.950;6.912;2022-12-18T00:19:58;-2.00;99.90
18597;DHT22;9428;50.950;6.912;2022-12-18T00:22:45;-1.90;99.90
18597;DHT22;9428;50.950;6.912;2022-12-18T00:25:34;-1.90;99.90
18597;DHT22;9428;50.950;6.912;2022-12-18T00:28:21;-1.90;99.90
18597;DHT22;9428;50.950;6.912;2022-12-18T00:31:10;-2.00;99.90
18597;DHT22;9428;50.950;6.912;2022-12-18T00:33:58;-1.90;99.90
18597;DHT22;9428;50.950;6.912;2022-12-18T00:36:47;-1.90;99.90
18597;DHT22;9428;50.950;6.912;2022-12-18T00:39:35;-1.90;99.90
18597;DHT22;9428;50.950;6.912;2022-12-18T00:42:23;-2.00;99.90
18597;DHT22;9428;50.950;6.912;2022-12-18T00:45:29;-2.00;99.90
18597;DHT22;9428;50.950;6.912;2022-12-18T00:48:17;-2.00;99.90
18597;DHT22;9428;50.950;6.912;2022-12-18T00:51:04;-2.10;99.90
18597;DHT22;9428;50.950;6.912;2022-12-18T00:53:52;-2.00;99.90
18597;DHT22;9428;50.950;6.912;2022-12-18T00:56:40;-2.10;99.90
18597;DHT22;9428;50.950;6.912;2022-12-18T00:59:29;-2.00;99.90
18597;DHT22;9428;50.950;6.912;2022-12-18T01:02:17;-2.00;99.90
18597;DHT22;9428;50.950;6.912;2022-12-18T01:05:04;-2.00;99.90
18597;DHT22;9428;50.950;6.912;2022-12-18T01:07:52;-2.00;99.90
18597;DHT22;9428;50.950;6.912;2022-12-18T01:10:40;-2.00;99.90
18597;DHT22;9428;50.950;6.912;2022-12-18T01:13:27;-2.10;99.90
18597;DHT22;9428;50.950;6.912;2022-12-18T01:16:17;-2.00;99.90
18597;DHT22;9428;50.950;6.912;2022-12-18T01:19:04;-2.10;99.90
18597;DHT22;9428;50.950;6.912;2022-12-18T01:21:51;-2.10;99.90
18597;DHT22;9428;50.950;6.912;2022-12-18T01:24:38;-2.10;99.90
18597;DHT22;9428;50.950;6.912;2022-12-18T01:27:26;-2.00;99.90
18597;DHT22;9428;50.950;6.912;2022-12-18T01:30:13;-2.10;99.90
18597;DHT22;9428;50.950;6.912;2022-12-18T01:33:04;-2.10;99.90
18597;DHT22;9428;50.950;6.912;2022-12-18T01:35:51;-2.20;99.90
18597;DHT22;9428;50.950;6.912;2022-12-18T01:38:38;-2.10;99.90
18597;DHT22;9428;50.950;6.912;2022-12-18T01:41:27;-2.10;99.90
18597;DHT22;9428;50.950;6.912;2022-12-18T01:44:55;-2.10;99.90
18597;DHT22;9428;50.950;6.912;2022-12-18T01:47:44;-1.70;99.90
18597;DHT22;9428;50.950;6.912;2022-12-18T01:50:36;-2.10;99.90
18597;DHT22;9428;50.950;6.912;2022-12-18T01:53:24;-2.00;99.90
18597;DHT22;9428;50.950;6.912;2022-12-18T01:56:16;-1.90;99.90
18597;DHT22;9428;50.950;6.912;2022-12-18T01:59:06;-2.00;99.90
18597;DHT22;9428;50.950;6.912;2022-12-18T02:01:56;-2.00;99.90
18597;DHT22;9428;50.950;6.912;2022-12-18T02:04:44;-2.10;99.90
18597;DHT22;9428;50.950;6.912;2022-12-18T02:07:40;-2.10;99.90
18597;DHT22;9428;50.950;6.912;2022-12-18T02:10:31;-2.00;99.90
18597;DHT22;9428;50.950;6.912;2022-12-18T02:13:30;-2.10;99.90
18597;DHT22;9428;50.950;6.912;2022-12-18T02:16:23;-2.20;99.90
18597;DHT22;9428;50.950;6.912;2022-12-18T02:19:27;-2.10;99.90
18597;DHT22;9428;50.950;6.912;2022-12-18T02:22:34;-2.10;99.90
18597;DHT22;9428;50.950;6.912;2022-12-18T02:25:40;-2.10;99.90
18597;DHT22;9428;50.950;6.912;2022-12-18T02:28:36;-2.20;99.90
18597;DHT22;9428;50.950;6.912;2022-12-18T02:31:27;-2.10;99.90
18597;DHT22;9428;50.950;6.912;2022-12-18T02:34:16;-2.10;99.90
18597;DHT22;9428;50.950;6.912;2022-12-18T02:37:06;-2.10;99.90
18597;DHT22;9428;50.950;6.912;2022-12-18T02:39:56;-2.00;99.90
18597;DHT22;9428;50.950;6.912;2022-12-18T02:42:44;-2.00;99.90
18597;DHT22;9428;50.950;6.912;2022-12-18T02:45:32;-2.10;99.90
18597;DHT22;9428;50.950;6.912;2022-12-18T02:48:23;-1.60;99.90
18597;DHT22;9428;50.950;6.912;2022-12-18T02:51:17;-2.00;99.90
18597;DHT22;9428;50.950;6.912;2022-12-18T02:54:09;-1.90;99.90
18597;DHT22;9428;50.950;6.912;2022-12-18T02:56:59;-1.90;99.90
18597;DHT22;9428;50.950;6.912;2022-12-18T02:59:55;-2.10;99.90
18597;DHT22;9428;50.950;6.912;2022-12-18T03:02:48;-2.00;99.90
18597;DHT22;9428;50.950;6.912;2022-12-18T03:05:43;-2.10;99.90
18597;DHT22;9428;50.950;6.912;2022-12-18T03:08:35;-2.10;99.90
18597;DHT22;9428;50.950;6.912;2022-12-18T03:11:24;-2.10;99.90
18597;DHT22;9428;50.950;6.912;2022-12-18T03:14:29;-2.10;99.90
18597;DHT22;9428;50.950;6.912;2022-12-18T03:17:21;-2.10;99.90
18597;DHT22;9428;50.950;6.912;2022-12-18T03:20:14;-2.10;99.90
18597;DHT22;9428;50.950;6.912;2022-12-18T03:23:08;-2.00;99.90
18597;DHT22;9428;50.950;6.912;2022-12-18T03:25:58;-2.20;99.90
18597;DHT22;9428;50.950;6.912;2022-12-18T03:28:49;-2.20;99.90
18597;DHT22;9428;50.950;6.912;2022-12-18T03:31:40;-2.20;99.90
18597;DHT22;9428;50.950;6.912;2022-12-18T03:34:31;-2.20;99.90
18597;DHT22;9428;50.950;6.912;2022-12-18T03:37:20;-2.20;99.90
18597;DHT22;9428;50.950;6.912;2022-12-18T03:40:08;-2.20;99.90
18597;DHT22;9428;50.950;6.912;2022-12-18T03:43:00;-2.30;99.90
18597;DHT22;9428;50.950;6.912;2022-12-18T03:45:53;-2.20;99.90
18597;DHT22;9428;50.950;6.912;2022-12-18T03:48:44;-2.20;99.90
18597;DHT22;9428;50.950;6.912;2022-12-18T03:51:37;-2.10;99.90
18597;DHT22;9428;50.950;6.912;2022-12-18T03:54:28;-2.20;99.90
18597;DHT22;9428;50.950;6.912;2022-12-18T03:57:18;-2.20;99.90
18597;DHT22;9428;50.950;6.912;2022-12-18T04:00:08;-2.30;99.90
18597;DHT22;9428;50.950;6.912;2022-12-18T04:02:57;-2.30;99.90
18597;DHT22;9428;50.950;6.912;2022-12-18T04:05:49;-2.30;99.90
18597;DHT22;9428;50.950;6.912;2022-12-18T04:08:38;-2.20;99.90
18597;DHT22;9428;50.950;6.912;2022-12-18T04:11:27;-2.20;99.90
18597;DHT22;9428;50.950;6.912;2022-12-18T04:14:14;-2.30;99.90
18597;DHT22;9428;50.950;6.912;2022-12-18T04:17:01;-2.30;99.90
18597;DHT22;9428;50.950;6.912;2022-12-18T04:19:49;-2.20;99.90
18597;DHT22;9428;50.950;6.912;2022-12-18T04:22:36;-2.20;99.90
18597;DHT22;9428;50.950;6.912;2022-12-18T04:25:24;-2.30;99.90
18597;DHT22;9428;50.950;6.912;2022-12-18T04:28:12;-2.30;99.90
18597;DHT22;9428;50.950;6.912;2022-12-18T04:30:59;-1.60;99.90
18597;DHT22;9428;50.950;6.912;2022-12-18T04:33:47;-2.50;99.90
18597;DHT22;9428;50.950;6.912;2022-12-18T04:36:34;-2.40;99.90
18597;DHT22;9428;50.950;6.912;2022-12-18T04:39:21;-2.40;99.90
18597;DHT22;9428;50.950;6.912;2022-12-18T04:42:08;-2.50;99.90
18597;DHT22;9428;50.950;6.912;2022-12-18T04:44:57;-2.40;99.90
18597;DHT22;9428;50.950;6.912;2022-12-18T04:47:44;-2.40;99.90
18597;DHT22;9428;50.950;6.912;2022-12-18T04:50:31;-2.40;99.90
18597;DHT22;9428;50.950;6.912;2022-12-18T04:53:19;-2.50;99.90
18597;DHT22;9428;50.950;6.912;2022-12-18T04:56:07;-2.50;99.90
18597;DHT22;9428;50.950;6.912;2022-12-18T04:58:55;-2.00;99.90
18597;DHT22;9428;50.950;6.912;2022-12-18T05:01:43;-2.60;99.90
18597;DHT22;9428;50.950;6.912;2022-12-18T05:04:31;-2.60;99.90
18597;DHT22;9428;50.950;6.912;2022-12-18T05:07:18;-2.50;99.90
18597;DHT22;9428;50.950;6.912;2022-12-18T05:10:06;-2.50;99.90
18597;DHT22;9428;50.950;6.912;2022-12-18T05:12:53;-2.50;99.90
18597;DHT22;9428;50.950;6.912;2022-12-18T05:15:51;-2.50;99.90
18597;DHT22;9428;50.950;6.912;2022-12-18T05:18:41;-2.50;99.90
18597;DHT22;9428;50.950;6.912;2022-12-18T05:21:28;-2.50;99.90
18597;DHT22;9428;50.950;6.912;2022-12-18T05:24:15;-2.60;99.90
18597;DHT22;9428;50.950;6.912;2022-12-18T05:27:03;-2.50;99.90
18597;DHT22;9428;50.950;6.912;2022-12-18T05:29:50;-2.40;99.90
18597;DHT22;9428;50.950;6.912;2022-12-18T05:32:37;-2.50;99.90
18597;DHT22;9428;50.950;6.912;2022-12-18T05:35:25;-2.40;99.90
18597;DHT22;9428;50.950;6.912;2022-12-18T05:38:13;-2.40;99.90
18597;DHT22;9428;50.950;6.912;2022-12-18T05:41:00;-2.40;99.90
18597;DHT22;9428;50.950;6.912;2022-12-18T05:43:47;-2.40;99.90
18597;DHT22;9428;50.950;6.912;2022-12-18T05:46:34;-2.30;99.90
18597;DHT22;9428;50.950;6.912;2022-12-18T05:49:22;-2.40;99.90
18597;DHT22;9428;50.950;6.912;2022-12-18T05:52:10;-2.50;99.90
18597;DHT22;9428;50.950;6.912;2022-12-18T05:54:57;-2.50;99.90
18597;DHT22;9428;50.950;6.912;2022-12-18T05:57:45;-2.50;99.90
18597;DHT22;9428;50.950;6.912;2022-12-18T06:00:36;-2.40;99.90
18597;DHT22;9428;50.950;6.912;2022-12-18T06:03:25;-2.30;99.90
18597;DHT22;9428;50.950;6.912;2022-12-18T06:06:13;-2.30;99.90
18597;DHT22;9428;50.950;6.912;2022-12-18T06:09:03;-2.10;99.90
18597;DHT22;9428;50.950;6.912;2022-12-18T06:11:54;-2.40;99.90
18597;DHT22;9428;50.950;6.912;2022-12-18T06:14:41;-2.40;99.90
18597;DHT22;9428;50.950;6.912;2022-12-18T06:17:28;-1.70;99.90
18597;DHT22;9428;50.950;6.912;2022-12-18T06:20:16;-2.30;99.90
18597;DHT22;9428;50.950;6.912;2022-12-18T06:23:03;-2.40;99.90
18597;DHT22;9428;50.950;6.912;2022-12-18T06:25:52;-2.50;99.90
18597;DHT22;9428;50.950;6.912;2022-12-18T06:28:39;-2.50;99.90
18597;DHT22;9428;50.950;6.912;2022-12-18T06:31:26;-3.20;99.90
18597;DHT22;9428;50.950;6.912;2022-12-18T06:34:13;-2.50;99.90
18597;DHT22;9428;50.950;6.912;2022-12-18T06:37:01;-2.50;99.90
18597;DHT22;9428;50.950;6.912;2022-12-18T06:39:48;-2.40;99.90
18597;DHT22;9428;50.950;6.912;2022-12-18T06:42:36;-2.50;99.90
18597;DHT22;9428;50.950;6.912;2022-12-18T06:45:24;-2.40;99.90
18597;DHT22;9428;50.950;6.912;2022-12-18T06:48:11;-2.40;99.90
18597;DHT22;9428;50.950;6.912;2022-12-18T06:50:58;-2.50;99.90
18597;DHT22;9428;50.950;6.912;2022-12-18T06:53:45;-2.50;99.90
18597;DHT22;9428;50.950;6.912;2022-12-18T06:56:33;-2.50;99.90
18597;DHT22;9428;50.950;6.912;2022-12-18T06:59:21;-2.50;99.90
18597;DHT22;9428;50.950;6.912;2022-12-18T07:02:11;-2.50;99.90
18597;DHT22;9428;50.950;6.912;2022-12-18T07:04:58;-2.50;99.90
18597;DHT22;9428;50.950;6.912;2022-12-18T07:07:46;-2.60;99.90
18597;DHT22;9428;50.950;6.912;2022-12-18T07:13:20;-2.50;99.90
18597;DHT22;9428;50.950;6.912;2022-12-18T07:16:10;-2.50;99.90
18597;DHT22;9428;50.950;6.912;2022-12-18T07:18:58;-2.60;99.90
18597;DHT22;9428;50.950;6.912;2022-12-18T07:21:45;-2.60;99.90
18597;DHT22;9428;50.950;6.912;2022-12-18T07:24:32;-2.50;99.90
18597;DHT22;9428;50.950;6.912;2022-12-18T07:27:20;-2.60;99.90
18597;DHT22;9428;50.950;6.912;2022-12-18T07:30:09;-2.60;99.90
18597;DHT22;9428;50.950;6.912;2022-12-18T07:32:57;-2.60;99.90
18597;DHT22;9428;50.950;6.912;2022-12-18T07:35:45;-2.60;99.90
18597;DHT22;9428;50.950;6.912;2022-12-18T07:38:32;-2.60;99.90
18597;DHT22;9428;50.950;6.912;2022-12-18T07:41:20;-2.60;99.90
18597;DHT22;9428;50.950;6.912;2022-12-18T07:44:09;-2.60;99.90
18597;DHT22;9428;50.950;6.912;2022-12-18T07:46:56;-2.50;99.90
18597;DHT22;9428;50.950;6.912;2022-12-18T07:49:45;-2.40;99.90
18597;DHT22;9428;50.950;6.912;2022-12-18T07:52:32;-2.50;99.90
18597;DHT22;9428;50.950;6.912;2022-12-18T07:55:19;-2.50;99.90
18597;DHT22;9428;50.950;6.912;2022-12-18T07:58:06;-2.50;99.90
18597;DHT22;9428;50.950;6.912;2022-12-18T08:00:53;-2.50;99.90
18597;DHT22;9428;50.950;6.912;2022-12-18T08:03:42;-2.50;99.90
18597;DHT22;9428;50.950;6.912;2022-12-18T08:06:30;-2.60;99.90
18597;DHT22;9428;50.950;6.912;2022-12-18T08:09:17;-2.60;99.90
18597;DHT22;9428;50.950;6.912;2022-12-18T08:12:05;-2.60;99.90
18597;DHT22;9428;50.950;6.912;2022-12-18T08:14:53;-2.40;99.90
18597;DHT22;9428;50.950;6.912;2022-12-18T08:17:40;-2.50;99.90
18597;DHT22;9428;50.950;6.912;2022-12-18T08:20:27;-2.40;99.90
18597;DHT22;9428;50.950;6.912;2022-12-18T08:23:15;-2.50;99.90
18597;DHT22;9428;50.950;6.912;2022-12-18T08:26:03;-2.40;99.90
18597;DHT22;9428;50.950;6.912;2022-12-18T08:28:50;-2.40;99.90
18597;DHT22;9428;50.950;6.912;2022-12-18T08:31:37;-2.40;99.90
18597;DHT22;9428;50.950;6.912;2022-12-18T08:34:25;-2.30;99.90
18597;DHT22;9428;50.950;6.912;2022-12-18T08:37:12;-2.40;99.90
18597;DHT22;9428;50.950;6.912;2022-12-18T08:40:00;-2.30;99.90
18597;DHT22;9428;50.950;6.912;2022-12-18T08:42:48;-2.30;99.90
18597;DHT22;9428;50.950;6.912;2022-12-18T08:45:53;-2.30;99.90
18597;DHT22;9428;50.950;6.912;2022-12-18T08:48:40;-2.30;99.90
18597;DHT22;9428;50.950;6.912;2022-12-18T08:51:27;-2.20;99.90
18597;DHT22;9428;50.950;6.912;2022-12-18T08:54:15;-2.10;99.90
18597;DHT22;9428;50.950;6.912;2022-12-18T08:57:03;-2.20;99.90
18597;DHT22;9428;50.950;6.912;2022-12-18T08:59:50;-1.30;99.90
18597;DHT22;9428;50.950;6.912;2022-12-18T09:02:37;-2.10;99.90
18597;DHT22;9428;50.950;6.912;2022-12-18T09:05:25;-2.10;99.90
18597;DHT22;9428;50.950;6.912;2022-12-18T09:08:12;-1.90;99.90
18597;DHT22;9428;50.950;6.912;2022-12-18T09:10:59;-1.90;99.90
18597;DHT22;9428;50.950;6.912;2022-12-18T09:13:48;-1.90;99.90
18597;DHT22;9428;50.950;6.912;2022-12-18T09:16:35;-1.80;99.90
18597;DHT22;9428;50.950;6.912;2022-12-18T09:19:22;-2.00;99.90
18597;DHT22;9428;50.950;6.912;2022-12-18T09:22:10;-1.90;99.90
18597;DHT22;9428;50.950;6.912;2022-12-18T09:24:57;-1.80;99.90
18597;DHT22;9428;50.950;6.912;2022-12-18T09:27:46;-1.80;99.90
18597;DHT22;9428;50.950;6.912;2022-12-18T09:30:36;-1.70;99.90
18597;DHT22;9428;50.950;6.912;2022-12-18T09:33:24;-1.60;99.90
18597;DHT22;9428;50.950;6.912;2022-12-18T09:36:13;-1.60;99.90
18597;DHT22;9428;50.950;6.912;2022-12-18T09:39:00;-1.50;99.90
18597;DHT22;9428;50.950;6.912;2022-12-18T09:41:50;-1.40;99.90
18597;DHT22;9428;50.950;6.912;2022-12-18T09:44:41;-1.40;99.90
18597;DHT22;9428;50.950;6.912;2022-12-18T09:47:36;-1.50;99.90
18597;DHT22;9428;50.950;6.912;2022-12-18T09:50:28;-1.30;99.90
18597;DHT22;9428;50.950;6.912;2022-12-18T09:53:20;-1.30;99.90
18597;DHT22;9428;50.950;6.912;2022-12-18T09:56:15;-1.30;99.90
18597;DHT22;9428;50.950;6.912;2022-12-18T09:59:04;-1.20;99.90
18597;DHT22;9428;50.950;6.912;2022-12-18T10:01:51;-1.20;99.90
18597;DHT22;9428;50.950;6.912;2022-12-18T10:04:40;-1.20;99.90
18597;DHT22;9428;50.950;6.912;2022-12-18T10:07:32;-1.20;99.90
18597;DHT22;9428;50.950;6.912;2022-12-18T10:10:31;-1.20;99.90
18597;DHT22;9428;50.950;6.912;2022-12-18T10:13:24;-1.20;99.90
18597;DHT22;9428;50.950;6.912;2022-12-18T10:16:17;-1.10;99.90
18597;DHT22;9428;50.950;6.912;2022-12-18T10:19:23;-1.00;99.90
18597;DHT22;9428;50.950;6.912;2022-12-18T10:25:33;-0.90;99.90
18597;DHT22;9428;50.950;6.912;2022-12-18T10:28:23;-0.90;99.90
18597;DHT22;9428;50.950;6.912;2022-12-18T10:31:15;-0.90;99.90
18597;DHT22;9428;50.950;6.912;2022-12-18T10:34:03;-0.90;99.90
18597;DHT22;9428;50.950;6.912;2022-12-18T10:36:50;-0.70;99.90
18597;DHT22;9428;50.950;6.912;2022-12-18T10:39:39;-0.70;99.90
18597;DHT22;9428;50.950;6.912;2022-12-18T10:42:26;-0.60;99.90
18597;DHT22;9428;50.950;6.912;2022-12-18T10:45:16;-0.60;99.90
18597;DHT22;9428;50.950;6.912;2022-12-18T10:48:04;-0.60;99.90
18597;DHT22;9428;50.950;6.912;2022-12-18T10:50:55;-0.60;99.90
18597;DHT22;9428;50.950;6.912;2022-12-18T10:53:52;-0.60;99.90
18597;DHT22;9428;50.950;6.912;2022-12-18T10:56:42;-0.60;99.90
18597;DHT22;9428;50.950;6.912;2022-12-18T10:59:50;-0.50;99.90
18597;DHT22;9428;50.950;6.912;2022-12-18T11:02:38;-0.60;99.90
18597;DHT22;9428;50.950;6.912;2022-12-18T11:05:28;-0.50;99.90
18597;DHT22;9428;50.950;6.912;2022-12-18T11:08:20;-0.40;99.90
18597;DHT22;9428;50.950;6.912;2022-12-18T11:11:17;-0.40;99.90
18597;DHT22;9428;50.950;6.912;2022-12-18T11:14:13;-0.40;99.90
18597;DHT22;9428;50.950;6.912;2022-12-18T11:17:02;-0.30;99.90
18597;DHT22;9428;50.950;6.912;2022-12-18T11:19:52;0.00;99.90
18597;DHT22;9428;50.950;6.912;2022-12-18T11:22:40;-0.30;99.90
18597;DHT22;9428;50.950;6.912;2022-12-18T11:25:29;-0.30;99.90
18597;DHT22;9428;50.950;6.912;2022-12-18T11:28:27;-0.20;99.90
18597;DHT22;9428;50.950;6.912;2022-12-18T11:31:25;-0.20;99.90
18597;DHT22;9428;50.950;6.912;2022-12-18T11:34:18;-0.20;99.90
18597;DHT22;9428;50.950;6.912;2022-12-18T11:37:09;-0.20;99.90
18597;DHT22;9428;50.950;6.912;2022-12-18T11:40:01;-0.10;99.90
18597;DHT22;9428;50.950;6.912;2022-12-18T11:42:53;-0.10;99.90
18597;DHT22;9428;50.950;6.912;2022-12-18T11:45:47;-0.20;99.90
18597;DHT22;9428;50.950;6.912;2022-12-18T11:48:42;-0.20;99.90
18597;DHT22;9428;50.950;6.912;2022-12-18T11:51:36;-0.10;99.90
18597;DHT22;9428;50.950;6.912;2022-12-18T11:54:23;-0.10;99.90
18597;DHT22;9428;50.950;6.912;2022-12-18T11:57:16;-0.10;99.90
18597;DHT22;9428;50.950;6.912;2022-12-18T12:00:13;0.00;99.90
18597;DHT22;9428;50.950;6.912;2022-12-18T12:03:24;-0.10;99.90
18597;DHT22;9428;50.950;6.912;2022-12-18T12:06:19;-0.10;99.90
18597;DHT22;9428;50.950;6.912;2022-12-18T12:09:13;-0.10;99.90
18597;DHT22;9428;50.950;6.912;2022-12-18T12:12:15;0.00;99.90
18597;DHT22;9428;50.950;6.912;2022-12-18T12:15:12;0.60;99.90
18597;DHT22;9428;50.950;6.912;2022-12-18T12:18:07;0.00;99.90
18597;DHT22;9428;50.950;6.912;2022-12-18T12:21:00;0.00;99.90
18597;DHT22;9428;50.950;6.912;2022-12-18T12:23:55;0.00;99.90
18597;DHT22;9428;50.950;6.912;2022-12-18T12:26:52;-0.10;99.90
18597;DHT22;9428;50.950;6.912;2022-12-18T12:29:50;0.00;99.90
18597;DHT22;9428;50.950;6.912;2022-12-18T12:32:53;-0.10;99.90
18597;DHT22;9428;50.950;6.912;2022-12-18T12:35:51;0.50;99.90
18597;DHT22;9428;50.950;6.912;2022-12-18T12:38:41;0.00;99.90
18597;DHT22;9428;50.950;6.912;2022-12-18T12:41:33;-0.10;99.90
18597;DHT22;9428;50.950;6.912;2022-12-18T12:44:43;0.00;99.90
18597;DHT22;9428;50.950;6.912;2022-12-18T12:47:33;0.00;99.90
18597;DHT22;9428;50.950;6.912;2022-12-18T12:50:22;0.00;99.90
18597;DHT22;9428;50.950;6.912;2022-12-18T12:53:19;-0.10;99.90
18597;DHT22;9428;50.950;6.912;2022-12-18T12:56:11;0.20;99.90
18597;DHT22;9428;50.950;6.912;2022-12-18T12:59:06;0.20;99.90
18597;DHT22;9428;50.950;6.912;2022-12-18T13:02:04;0.20;99.90
18597;DHT22;9428;50.950;6.912;2022-12-18T13:04:59;0.20;99.90
18597;DHT22;9428;50.950;6.912;2022-12-18T13:07:52;0.10;99.90
18597;DHT22;9428;50.950;6.912;2022-12-18T13:10:41;0.20;99.90
18597;DHT22;9428;50.950;6.912;2022-12-18T13:13:48;0.80;99.90
18597;DHT22;9428;50.950;6.912;2022-12-18T13:16:39;0.40;99.90
18597;DHT22;9428;50.950;6.912;2022-12-18T13:19:26;0.00;99.90
18597;DHT22;9428;50.950;6.912;2022-12-18T13:22:22;0.10;99.90
18597;DHT22;9428;50.950;6.912;2022-12-18T13:25:34;0.00;99.90
18597;DHT22;9428;50.950;6.912;2022-12-18T13:28:23;-0.10;99.90
18597;DHT22;9428;50.950;6.912;2022-12-18T13:31:12;0.10;99.90
18597;DHT22;9428;50.950;6.912;2022-12-18T13:34:14;0.10;99.90
18597;DHT22;9428;50.950;6.912;2022-12-18T13:40:56;0.10;99.90
18597;DHT22;9428;50.950;6.912;2022-12-18T13:43:45;0.10;99.90
18597;DHT22;9428;50.950;6.912;2022-12-18T13:46:43;0.10;99.90
18597;DHT22;9428;50.950;6.912;2022-12-18T13:49:37;0.20;99.90
18597;DHT22;9428;50.950;6.912;2022-12-18T13:52:26;0.10;99.90
18597;DHT22;9428;50.950;6.912;2022-12-18T13:55:17;0.10;99.90
18597;DHT22;9428;50.950;6.912;2022-12-18T13:58:06;0.10;99.90
18597;DHT22;9428;50.950;6.912;2022-12-18T14:00:53;0.10;99.90
18597;DHT22;9428;50.950;6.912;2022-12-18T14:03:40;0.20;99.90
18597;DHT22;9428;50.950;6.912;2022-12-18T14:06:28;0.20;99.90
18597;DHT22;9428;50.950;6.912;2022-12-18T14:09:20;0.20;99.90
18597;DHT22;9428;50.950;6.912;2022-12-18T14:12:15;0.20;99.90
18597;DHT22;9428;50.950;6.912;2022-12-18T14:15:26;0.20;99.90
18597;DHT22;9428;50.950;6.912;2022-12-18T14:18:20;0.10;99.90
18597;DHT22;9428;50.950;6.912;2022-12-18T14:21:18;0.60;99.90
18597;DHT22;9428;50.950;6.912;2022-12-18T14:24:14;0.10;99.90
18597;DHT22;9428;50.950;6.912;2022-12-18T14:27:13;0.20;99.90
18597;DHT22;9428;50.950;6.912;2022-12-18T14:30:23;0.10;99.90
18597;DHT22;9428;50.950;6.912;2022-12-18T14:33:12;0.10;99.90
18597;DHT22;9428;50.950;6.912;2022-12-18T14:36:01;0.90;99.90
18597;DHT22;9428;50.950;6.912;2022-12-18T14:38:50;0.10;99.90
18597;DHT22;9428;50.950;6.912;2022-12-18T14:41:40;0.10;99.90
18597;DHT22;9428;50.950;6.912;2022-12-18T14:44:28;0.20;99.90
18597;DHT22;9428;50.950;6.912;2022-12-18T14:47:15;0.10;99.90
18597;DHT22;9428;50.950;6.912;2022-12-18T14:50:04;0.10;99.90
18597;DHT22;9428;50.950;6.912;2022-12-18T14:52:58;0.10;99.90
18597;DHT22;9428;50.950;6.912;2022-12-18T14:55:46;0.00;99.90
18597;DHT22;9428;50.950;6.912;2022-12-18T14:58:36;0.00;99.90
18597;DHT22;9428;50.950;6.912;2022-12-18T15:01:26;0.00;99.90
18597;DHT22;9428;50.950;6.912;2022-12-18T15:04:25;0.00;99.90
18597;DHT22;9428;50.950;6.912;2022-12-18T15:07:15;0.70;99.90
18597;DHT22;9428;50.950;6.912;2022-12-18T15:10:11;0.00;99.90
18597;DHT22;9428;50.950;6.912;2022-12-18T15:13:15;-0.10;99.90
18597;DHT22;9428;50.950;6.912;2022-12-18T15:16:11;-0.10;99.90
18597;DHT22;9428;50.950;6.912;2022-12-18T15:19:00;-0.10;99.90
18597;DHT22;9428;50.950;6.912;2022-12-18T15:21:48;-0.10;99.90
18597;DHT22;9428;50.950;6.912;2022-12-18T15:24:35;-0.10;99.90
18597;DHT22;9428;50.950;6.912;2022-12-18T15:27:25;-0.10;99.90
18597;DHT22;9428;50.950;6.912;2022-12-18T15:30:18;-0.10;99.90
18597;DHT22;9428;50.950;6.912;2022-12-18T15:33:24;-0.10;99.90
18597;DHT22;9428;50.950;6.912;2022-12-18T15:36:13;-0.10;99.90
18597;DHT22;9428;50.950;6.912;2022-12-18T15:39:00;-0.10;99.90
18597;DHT22;9428;50.950;6.912;2022-12-18T15:41:48;-0.10;99.90
18597;DHT22;9428;50.950;6.912;2022-12-18T15:44:53;-0.20;99.90
18597;DHT22;9428;50.950;6.912;2022-12-18T15:47:40;-0.20;99.90
18597;DHT22;9428;50.950;6.912;2022-12-18T15:50:29;-0.30;99.90
18597;DHT22;9428;50.950;6.912;2022-12-18T15:53:17;-0.20;99.90
18597;DHT22;9428;50.950;6.912;2022-12-18T15:56:09;-0.20;99.90
18597;DHT22;9428;50.950;6.912;2022-12-18T15:59:16;-0.20;99.90
18597;DHT22;9428;50.950;6.912;2022-12-18T16:02:16;-0.20;99.90
18597;DHT22;9428;50.950;6.912;2022-12-18T16:05:05;-0.20;99.90
18597;DHT22;9428;50.950;6.912;2022-12-18T16:07:58;-0.20;99.90
18597;DHT22;9428;50.950;6.912;2022-12-18T16:10:45;-0.20;99.90
18597;DHT22;9428;50.950;6.912;2022-12-18T16:13:32;0.60;99.90
18597;DHT22;9428;50.950;6.912;2022-12-18T16:16:19;-0.30;99.90
18597;DHT22;9428;50.950;6.912;2022-12-18T16:19:06;-0.20;99.90
18597;DHT22;9428;50.950;6.912;2022-12-18T16:21:55;0.10;99.90
18597;DHT22;9428;50.950;6.912;2022-12-18T16:24:44;-0.20;99.90
18597;DHT22;9428;50.950;6.912;2022-12-18T16:27:31;-0.10;99.90
18597;DHT22;9428;50.950;6.912;2022-12-18T16:30:21;-0.10;99.90
18597;DHT22;9428;50.950;6.912;2022-12-18T16:33:09;-0.30;99.90
18597;DHT22;9428;50.950;6.912;2022-12-18T16:35:56;-0.20;99.90
18597;DHT22;9428;50.950;6.912;2022-12-18T16:38:44;-0.10;99.90
18597;DHT22;9428;50.950;6.912;2022-12-18T16:41:32;-0.20;99.90
18597;DHT22;9428;50.950;6.912;2022-12-18T16:44:19;-0.20;99.90
18597;DHT22;9428;50.950;6.912;2022-12-18T16:47:07;0.80;99.90
18597;DHT22;9428;50.950;6.912;2022-12-18T16:49:54;-0.10;99.90
18597;DHT22;9428;50.950;6.912;2022-12-18T16:52:41;-0.10;99.90
18597;DHT22;9428;50.950;6.912;2022-12-18T16:55:28;-0.10;99.90
18597;DHT22;9428;50.950;6.912;2022-12-18T16:58:17;-0.10;99.90
18597;DHT22;9428;50.950;6.912;2022-12-18T17:01:07;-0.10;99.90
18597;DHT22;9428;50.950;6.912;2022-12-18T17:03:56;-0.10;99.90
18597;DHT22;9428;50.950;6.912;2022-12-18T17:06:44;-0.10;99.90
18597;DHT22;9428;50.950;6.912;2022-12-18T17:09:37;-0.10;99.90
18597;DHT22;9428;50.950;6.912;2022-12-18T17:12:24;-0.10;99.90
18597;DHT22;9428;50.950;6.912;2022-12-18T17:15:13;0.60;99.90
18597;DHT22;9428;50.950;6.912;2022-12-18T17:18:00;0.00;99.90
18597;DHT22;9428;50.950;6.912;2022-12-18T17:20:47;-0.10;99.90
18597;DHT22;9428;50.950;6.912;2022-12-18T17:23:34;0.00;99.90
18597;DHT22;9428;50.950;6.912;2022-12-18T17:26:22;-0.10;99.90
18597;DHT22;9428;50.950;6.912;2022-12-18T17:29:12;0.00;99.90
18597;DHT22;9428;50.950;6.912;2022-12-18T17:32:01;-0.10;99.90
18597;DHT22;9428;50.950;6.912;2022-12-18T17:34:48;-0.10;99.90
18597;DHT22;9428;50.950;6.912;2022-12-18T17:37:36;-0.10;99.90
18597;DHT22;9428;50.950;6.912;2022-12-18T17:40:23;-0.10;99.90
18597;DHT22;9428;50.950;6.912;2022-12-18T17:43:11;0.60;99.90
18597;DHT22;9428;50.950;6.912;2022-12-18T17:46:01;0.70;99.90
18597;DHT22;9428;50.950;6.912;2022-12-18T17:48:49;0.30;99.90
18597;DHT22;9428;50.950;6.912;2022-12-18T17:51:37;-0.10;99.90
18597;DHT22;9428;50.950;6.912;2022-12-18T17:54:24;-0.30;99.90
18597;DHT22;9428;50.950;6.912;2022-12-18T17:57:11;-0.20;99.90
18597;DHT22;9428;50.950;6.912;2022-12-18T17:59:59;-0.20;99.90
18597;DHT22;9428;50.950;6.912;2022-12-18T18:02:46;-0.20;99.90
18597;DHT22;9428;50.950;6.912;2022-12-18T18:05:35;-0.20;99.90
18597;DHT22;9428;50.950;6.912;2022-12-18T18:08:22;-0.20;99.90
18597;DHT22;9428;50.950;6.912;2022-12-18T18:11:11;-0.20;99.90
18597;DHT22;9428;50.950;6.912;2022-12-18T18:14:18;-0.20;99.90
18597;DHT22;9428;50.950;6.912;2022-12-18T18:17:06;-0.20;99.90
18597;DHT22;9428;50.950;6.912;2022-12-18T18:19:53;-0.20;99.90
18597;DHT22;9428;50.950;6.912;2022-12-18T18:22:42;-0.20;99.90
18597;DHT22;9428;50.950;6.912;2022-12-18T18:25:29;0.30;99.90
18597;DHT22;9428;50.950;6.912;2022-12-18T18:28:16;-0.30;99.90